Time;durP1;ratioP1;P1;durP2;ratioP2;P2;SDS_P1;SDS_P2;PMS_P1;PMS_P2;Temp;Humidity;BMP_temperature;BMP_pressure;BME280_temperature;BME280_humidity;BME280_pressure;Samples;Min_cycle;Max_cycle;Signal;HPM_P1;HPM_P2
2022/04/20 00:01:09;;;;;;;9.68;7.50;;;;;;;;;;5026836;28;20167;-70
2022/04/20 00:03:35;;;;;;;8.38;6.22;;;;;;;;;;5014747;28;20108;-70
2022/04/20 00:06:01;;;;;;;10.88;6.90;;;;;;;;;;5025071;28;20040;-71
2022/04/20 00:08:27;;;;;;;11.88;6.70;;;;;;;;;;5020222;28;20485;-70
2022/04/20 00:10:52;;;;;;;11.05;7.22;;;;;;;;;;5017762;28;20472;-71
2022/04/20 00:13:18;;;;;;;8.95;6.90;;;;;;;;;;5031129;28;20091;-71
2022/04/20 00:15:44;;;;;;;9.15;7.07;;;;;;;;;;5018950;28;20091;-70
2022/04/20 00:18:10;;;;;;;8.77;6.35;;;;;;;;;;5026661;28;20037;-69
2022/04/20 00:20:36;;;;;;;9.57;6.32;;;;;;;;;;5025937;28;20033;-70
2022/04/20 00:23:02;;;;;;;10.50;7.57;;;;;;;;;;5031315;28;20044;-70
2022/04/20 00:25:28;;;;;;;9.98;7.95;;;;;;;;;;5018241;28;20060;-71
2022/04/20 00:27:54;;;;;;;8.82;6.95;;;;;;;;;;5028411;28;20022;-71
2022/04/20 00:30:20;;;;;;;9.63;6.63;;;;;;;;;;5005946;28;20480;-71
2022/04/20 00:32:46;;;;;;;11.38;6.82;;;;;;;;;;5022110;28;20554;-70
2022/04/20 00:35:12;;;;;;;9.93;6.85;;;;;;;;;;5030748;28;20025;-70
2022/04/20 00:37:41;;;;;;;9.63;6.80;;;;;;;;;;5017142;28;20033;-69
2022/04/20 00:40:07;;;;;;;11.27;7.43;;;;;;;;;;5055443;22;20426;-76
2022/04/20 00:42:33;;;;;;;9.00;6.85;;;;;;;;;;5006599;28;20034;-76
2022/04/20 00:44:59;;;;;;;12.15;7.35;;;;;;;;;;5028911;28;20056;-76
2022/04/20 00:47:25;;;;;;;9.07;6.97;;;;;;;;;;5017426;28;20040;-76
2022/04/20 00:49:51;;;;;;;8.82;6.35;;;;;;;;;;5030177;28;20018;-76
2022/04/20 00:52:17;;;;;;;9.38;7.43;;;;;;;;;;5005646;28;20497;-76
2022/04/20 00:54:44;;;;;;;8.93;6.45;;;;;;;;;;5022509;28;20050;-75
2022/04/20 00:57:12;;;;;;;10.95;7.93;;;;;;;;;;5011711;28;20026;-72
2022/04/20 00:59:39;;;;;;;9.13;7.00;;;;;;;;;;5018095;28;20049;-74
2022/04/20 01:02:05;;;;;;;10.07;7.32;;;;;;;;;;5027660;28;20380;-74
2022/04/20 01:04:31;;;;;;;12.32;8.00;;;;;;;;;;5025035;28;20017;-74
2022/04/20 01:07:00;;;;;;;12.48;8.20;;;;;;;;;;5002759;28;20021;-74
2022/04/20 01:09:27;;;;;;;12.68;8.05;;;;;;;;;;5030478;28;20083;-75
2022/04/20 01:11:55;;;;;;;11.23;8.00;;;;;;;;;;5020102;28;20479;-75
2022/04/20 01:14:21;;;;;;;10.50;8.18;;;;;;;;;;5025731;28;20014;-75
2022/04/20 01:16:47;;;;;;;11.98;7.88;;;;;;;;;;5008980;28;20522;-74
2022/04/20 01:19:14;;;;;;;11.93;8.00;;;;;;;;;;5017384;28;20029;-74
2022/04/20 01:21:40;;;;;;;10.68;7.80;;;;;;;;;;5030771;28;20403;-74
2022/04/20 01:24:06;;;;;;;11.07;7.88;;;;;;;;;;5026286;28;20014;-75
2022/04/20 01:26:33;;;;;;;11.48;8.23;;;;;;;;;;5024656;28;20049;-74
2022/04/20 01:29:02;;;;;;;8.80;7.55;;;;;;;;;;5018730;28;20030;-74
2022/04/20 01:31:30;;;;;;;11.48;7.97;;;;;;;;;;5030302;28;20030;-74
2022/04/20 01:33:56;;;;;;;12.48;7.50;;;;;;;;;;5001881;28;20033;-73
2022/04/20 01:36:22;;;;;;;12.75;8.60;;;;;;;;;;5024949;28;20022;-74
2022/04/20 01:38:48;;;;;;;12.05;8.13;;;;;;;;;;5025367;28;20117;-75
2022/04/20 01:41:14;;;;;;;11.85;8.02;;;;;;;;;;5017829;28;20030;-74
2022/04/20 01:43:40;;;;;;;13.40;8.90;;;;;;;;;;5030297;28;20058;-74
2022/04/20 01:46:06;;;;;;;13.27;9.20;;;;;;;;;;5003008;28;20025;-75
2022/04/20 01:48:32;;;;;;;12.80;9.40;;;;;;;;;;5022373;28;20033;-74
2022/04/20 01:53:42;;;;;;;16.23;8.50;;;;;;;;;;5001306;28;20032;-76
2022/04/20 01:56:08;;;;;;;12.55;8.07;;;;;;;;;;5026115;28;20030;-78
2022/04/20 01:58:35;;;;;;;12.07;8.00;;;;;;;;;;5024014;28;20044;-77
2022/04/20 02:02:34;;;;;;;9.98;7.85;;;;;;;;;;5019268;28;20765;-79
2022/04/20 02:03:47;;;;;;;12.30;9.05;;;;;;;;;;5003204;28;20036;-78
2022/04/20 02:06:14;;;;;;;13.05;8.75;;;;;;;;;;5026854;28;20025;-78
2022/04/20 02:08:40;;;;;;;11.95;8.77;;;;;;;;;;5035446;28;20087;-78
2022/04/20 02:11:06;;;;;;;11.13;8.25;;;;;;;;;;5025684;28;20073;-79
2022/04/20 02:13:33;;;;;;;13.80;8.57;;;;;;;;;;5030859;28;20029;-79
2022/04/20 02:16:01;;;;;;;11.98;8.55;;;;;;;;;;5020056;28;20479;-79
2022/04/20 02:18:27;;;;;;;16.73;9.63;;;;;;;;;;5006397;28;20060;-79
2022/04/20 02:20:53;;;;;;;13.05;9.30;;;;;;;;;;5025930;28;20065;-75
2022/04/20 02:23:19;;;;;;;11.73;8.77;;;;;;;;;;5029599;28;20028;-76
2022/04/20 02:25:45;;;;;;;11.95;8.30;;;;;;;;;;5017055;28;20025;-76
2022/04/20 02:28:11;;;;;;;12.95;9.52;;;;;;;;;;5006925;28;20018;-74
2022/04/20 02:30:37;;;;;;;11.65;8.48;;;;;;;;;;5006276;28;20034;-75
2022/04/20 02:33:03;;;;;;;10.75;8.07;;;;;;;;;;5017750;28;20037;-77
2022/04/20 02:35:30;;;;;;;13.52;9.13;;;;;;;;;;5029221;28;20034;-76
2022/04/20 02:37:56;;;;;;;12.00;8.55;;;;;;;;;;5000123;28;20025;-76
2022/04/20 02:40:22;;;;;;;11.85;8.38;;;;;;;;;;5023419;28;20072;-75
2022/04/20 02:42:48;;;;;;;11.77;8.60;;;;;;;;;;5025085;28;20022;-75
2022/04/20 02:45:16;;;;;;;12.00;8.55;;;;;;;;;;5016243;28;20014;-76
2022/04/20 02:47:42;;;;;;;13.27;8.82;;;;;;;;;;5027775;28;20030;-77
2022/04/20 02:50:08;;;;;;;13.32;8.63;;;;;;;;;;5019968;28;20503;-74
2022/04/20 02:52:34;;;;;;;13.13;9.57;;;;;;;;;;5032445;28;20029;-75
2022/04/20 02:55:00;;;;;;;13.45;9.05;;;;;;;;;;5018380;28;20419;-75
2022/04/20 02:57:26;;;;;;;13.05;9.20;;;;;;;;;;5028436;28;20026;-74
2022/04/20 02:59:52;;;;;;;11.23;8.93;;;;;;;;;;5017441;28;20088;-74
2022/04/20 03:02:18;;;;;;;12.55;8.80;;;;;;;;;;5023425;28;20029;-74
2022/04/20 03:04:44;;;;;;;13.57;9.65;;;;;;;;;;5025053;28;20045;-74
2022/04/20 03:07:10;;;;;;;15.25;9.98;;;;;;;;;;5016674;28;20060;-74
2022/04/20 03:09:36;;;;;;;17.15;10.57;;;;;;;;;;5029676;28;20036;-74
2022/04/20 03:12:02;;;;;;;15.00;10.43;;;;;;;;;;5019475;28;20391;-76
2022/04/20 03:14:28;;;;;;;14.75;10.45;;;;;;;;;;5005270;28;20025;-76
2022/04/20 03:16:54;;;;;;;13.43;9.57;;;;;;;;;;5007807;28;20087;-73
2022/04/20 03:19:20;;;;;;;13.63;9.75;;;;;;;;;;5015267;28;20030;-74
2022/04/20 03:21:46;;;;;;;13.93;9.77;;;;;;;;;;5029080;28;20033;-73
2022/04/20 03:24:13;;;;;;;13.27;10.10;;;;;;;;;;5025904;28;20010;-75
2022/04/20 03:26:39;;;;;;;13.52;10.10;;;;;;;;;;5007561;28;20018;-77
2022/04/20 03:29:05;;;;;;;13.35;10.00;;;;;;;;;;5018974;28;20092;-76
2022/04/20 03:31:31;;;;;;;13.18;9.13;;;;;;;;;;5014914;28;20291;-75
2022/04/20 03:33:57;;;;;;;17.13;10.05;;;;;;;;;;5026842;28;20061;-75
2022/04/20 03:36:23;;;;;;;12.45;9.30;;;;;;;;;;5003684;28;20053;-75
2022/04/20 03:38:49;;;;;;;12.88;9.38;;;;;;;;;;5017936;28;20038;-75
2022/04/20 03:41:15;;;;;;;15.88;9.52;;;;;;;;;;5028154;28;20025;-75
2022/04/20 03:43:41;;;;;;;13.85;9.73;;;;;;;;;;5015273;28;20018;-75
2022/04/20 03:46:07;;;;;;;14.55;9.63;;;;;;;;;;5025859;28;20026;-77
2022/04/20 03:48:33;;;;;;;13.70;9.90;;;;;;;;;;5028731;28;20075;-77
2022/04/20 03:50:59;;;;;;;13.25;9.30;;;;;;;;;;5024337;28;20033;-74
2022/04/20 03:53:25;;;;;;;13.48;8.77;;;;;;;;;;5035097;28;20035;-75
2022/04/20 03:55:51;;;;;;;15.85;9.70;;;;;;;;;;5023342;28;20017;-75
2022/04/20 03:58:17;;;;;;;14.18;9.25;;;;;;;;;;5029133;28;20018;-74
2022/04/20 04:00:43;;;;;;;16.75;9.57;;;;;;;;;;5030021;28;20039;-75
2022/04/20 04:03:09;;;;;;;14.27;9.25;;;;;;;;;;5022591;28;20025;-78
2022/04/20 04:05:35;;;;;;;12.70;9.88;;;;;;;;;;5017237;28;20033;-75
2022/04/20 04:08:02;;;;;;;13.07;9.32;;;;;;;;;;5023696;28;20017;-75
2022/04/20 04:10:28;;;;;;;12.77;9.10;;;;;;;;;;5010280;28;20030;-74
2022/04/20 04:12:55;;;;;;;15.68;9.25;;;;;;;;;;5031120;28;20028;-74
2022/04/20 04:15:21;;;;;;;12.75;9.43;;;;;;;;;;5021596;28;20042;-75
2022/04/20 04:17:54;;;;;;;12.88;8.95;;;;;;;;;;5032931;28;20037;-75
2022/04/20 04:20:20;;;;;;;15.60;9.18;;;;;;;;;;5008884;28;20025;-75
2022/04/20 04:22:46;;;;;;;15.30;9.25;;;;;;;;;;5016798;28;20048;-75
2022/04/20 04:25:12;;;;;;;12.32;9.32;;;;;;;;;;5022047;28;20523;-76
2022/04/20 04:27:38;;;;;;;14.98;9.45;;;;;;;;;;5033438;28;20811;-77
2022/04/20 04:30:04;;;;;;;10.88;8.50;;;;;;;;;;5024678;28;20067;-76
2022/04/20 04:32:30;;;;;;;13.30;8.88;;;;;;;;;;5028407;28;20439;-76
2022/04/20 04:34:56;;;;;;;12.65;8.38;;;;;;;;;;5020787;28;20033;-76
2022/04/20 04:37:22;;;;;;;10.48;7.57;;;;;;;;;;5005534;28;20026;-76
2022/04/20 04:39:48;;;;;;;11.68;8.15;;;;;;;;;;5025944;28;20483;-76
2022/04/20 04:42:14;;;;;;;11.90;8.38;;;;;;;;;;5029803;28;20068;-77
2022/04/20 04:44:40;;;;;;;11.50;8.07;;;;;;;;;;5029682;28;20103;-76
2022/04/20 04:49:51;;;;;;;11.38;7.85;;;;;;;;;;5008012;28;20155;-76
2022/04/20 04:52:17;;;;;;;11.45;7.63;;;;;;;;;;5011553;28;20530;-73
2022/04/20 04:54:43;;;;;;;11.38;7.40;;;;;;;;;;5011861;28;20049;-73
2022/04/20 04:57:10;;;;;;;13.68;8.68;;;;;;;;;;5003896;28;20032;-73
2022/04/20 04:59:37;;;;;;;10.65;7.85;;;;;;;;;;5029694;28;20647;-74
2022/04/20 05:02:03;;;;;;;11.52;7.60;;;;;;;;;;5021131;28;20474;-74
2022/04/20 05:04:30;;;;;;;11.50;7.90;;;;;;;;;;5025060;28;20032;-74
2022/04/20 05:06:56;;;;;;;14.68;8.57;;;;;;;;;;5028363;28;20537;-74
2022/04/20 05:09:22;;;;;;;10.60;7.20;;;;;;;;;;4999214;28;20022;-75
2022/04/20 05:11:51;;;;;;;10.50;7.53;;;;;;;;;;5029893;28;20030;-75
2022/04/20 05:14:17;;;;;;;11.15;7.93;;;;;;;;;;5004699;28;20082;-75
2022/04/20 05:16:43;;;;;;;8.88;7.25;;;;;;;;;;5021692;28;20337;-74
2022/04/20 05:19:10;;;;;;;10.85;7.05;;;;;;;;;;5028780;28;20321;-75
2022/04/20 05:21:36;;;;;;;14.50;7.35;;;;;;;;;;5017528;28;20406;-74
2022/04/20 05:24:02;;;;;;;13.07;7.85;;;;;;;;;;5027417;28;20022;-75
2022/04/20 05:26:28;;;;;;;14.77;8.02;;;;;;;;;;5006281;28;20533;-74
2022/04/20 05:28:54;;;;;;;15.13;8.77;;;;;;;;;;5020255;28;20373;-78
2022/04/20 05:31:21;;;;;;;11.20;8.18;;;;;;;;;;5030352;28;20026;-72
2022/04/20 05:33:47;;;;;;;10.50;7.85;;;;;;;;;;5012512;28;20041;-74
2022/04/20 05:36:13;;;;;;;10.90;7.65;;;;;;;;;;5021632;28;20013;-74
2022/04/20 05:41:39;;;;;;;15.35;9.30;;;;;;;;;;5017456;28;20156;-75
2022/04/20 05:44:05;;;;;;;;;;;;;;;;;;5009595;28;20067;-75
2022/04/20 05:46:33;;;;;;;11.85;8.23;;;;;;;;;;5024113;28;20374;-75
2022/04/20 05:48:59;;;;;;;14.75;8.82;;;;;;;;;;5020070;28;20036;-75
2022/04/20 05:51:25;;;;;;;16.73;9.00;;;;;;;;;;5032503;28;20391;-74
2022/04/20 05:53:51;;;;;;;13.55;8.50;;;;;;;;;;5018342;28;20029;-74
2022/04/20 05:56:17;;;;;;;17.02;10.00;;;;;;;;;;5024918;28;20075;-75
2022/04/20 05:58:44;;;;;;;19.50;9.40;;;;;;;;;;5006569;28;20033;-74
2022/04/20 06:01:10;;;;;;;14.25;9.60;;;;;;;;;;5016813;28;20018;-74
2022/04/20 06:03:36;;;;;;;12.27;8.73;;;;;;;;;;5011370;28;20034;-74
2022/04/20 06:06:03;;;;;;;14.63;9.40;;;;;;;;;;5018816;28;20033;-73
2022/04/20 06:08:30;;;;;;;13.05;9.48;;;;;;;;;;5021720;28;20018;-76
2022/04/20 06:10:57;;;;;;;11.73;8.82;;;;;;;;;;5026031;28;20022;-72
2022/04/20 06:13:24;;;;;;;17.98;9.65;;;;;;;;;;4998750;28;20053;-72
2022/04/20 06:15:50;;;;;;;11.88;8.63;;;;;;;;;;5027985;28;20014;-75
2022/04/20 06:18:16;;;;;;;14.65;9.15;;;;;;;;;;5002531;28;20021;-75
2022/04/20 06:20:41;;;;;;;14.38;9.88;;;;;;;;;;5020084;28;20052;-76
2022/04/20 06:23:07;;;;;;;12.88;8.65;;;;;;;;;;5029467;28;20029;-77
2022/04/20 06:25:33;;;;;;;15.48;8.73;;;;;;;;;;5016891;28;20026;-73
2022/04/20 06:28:00;;;;;;;13.55;8.35;;;;;;;;;;5008371;28;20030;-76
2022/04/20 06:30:26;;;;;;;10.35;7.75;;;;;;;;;;5007265;28;20122;-75
2022/04/20 06:32:52;;;;;;;14.55;9.80;;;;;;;;;;5021545;28;20491;-74
2022/04/20 06:35:18;;;;;;;13.98;9.38;;;;;;;;;;5012135;28;20017;-74
2022/04/20 06:37:44;;;;;;;13.70;9.25;;;;;;;;;;5016505;28;20056;-75
2022/04/20 06:40:10;;;;;;;17.63;9.70;;;;;;;;;;5051012;22;20447;-74
2022/04/20 06:42:37;;;;;;;13.52;9.75;;;;;;;;;;5021237;28;20164;-74
2022/04/20 06:45:03;;;;;;;24.23;13.95;;;;;;;;;;5026425;28;20029;-73
2022/04/20 06:47:29;;;;;;;17.85;9.70;;;;;;;;;;5014572;28;20034;-75
2022/04/20 06:49:55;;;;;;;11.98;8.80;;;;;;;;;;5026729;28;20062;-72
2022/04/20 07:00:36;;;;;;;14.07;9.13;;;;;;;;;;5020560;28;20041;-71
2022/04/20 07:03:02;;;;;;;20.10;8.95;;;;;;;;;;5026515;28;20033;-73
2022/04/20 07:05:28;;;;;;;17.20;9.55;;;;;;;;;;5015659;28;20022;-73
2022/04/20 07:07:54;;;;;;;13.55;9.48;;;;;;;;;;5008133;28;20503;-74
2022/04/20 07:10:20;;;;;;;14.00;9.63;;;;;;;;;;5020364;28;20083;-74
2022/04/20 07:12:46;;;;;;;17.95;9.93;;;;;;;;;;5019199;28;20024;-73
2022/04/20 07:15:12;;;;;;;15.23;9.65;;;;;;;;;;5027593;28;20017;-73
2022/04/20 07:17:38;;;;;;;11.95;9.45;;;;;;;;;;5014231;28;20021;-74
2022/04/20 07:20:06;;;;;;;13.75;9.27;;;;;;;;;;5024785;28;20014;-72
2022/04/20 07:22:33;;;;;;;18.67;9.38;;;;;;;;;;5021115;28;20391;-72
2022/04/20 07:25:00;;;;;;;14.00;10.23;;;;;;;;;;5017148;28;20018;-71
2022/04/20 07:27:25;;;;;;;18.15;9.98;;;;;;;;;;5009282;28;20021;-71
2022/04/20 07:29:51;;;;;;;13.25;8.30;;;;;;;;;;5016408;28;20494;-71
2022/04/20 07:32:17;;;;;;;13.30;8.52;;;;;;;;;;5005619;28;20030;-71
2022/04/20 07:34:43;;;;;;;17.42;8.95;;;;;;;;;;5023132;28;20111;-71
2022/04/20 07:37:09;;;;;;;16.95;8.73;;;;;;;;;;5015535;28;20479;-71
2022/04/20 07:39:35;;;;;;;12.68;8.57;;;;;;;;;;5009810;28;20406;-71
2022/04/20 07:42:01;;;;;;;17.10;9.18;;;;;;;;;;5017799;28;20022;-72
2022/04/20 07:44:27;;;;;;;14.10;9.23;;;;;;;;;;5021607;28;20018;-72
2022/04/20 07:46:53;;;;;;;13.88;9.40;;;;;;;;;;5024496;28;20014;-72
2022/04/20 07:52:04;;;;;;;13.90;9.65;;;;;;;;;;5024788;28;20399;-71
2022/04/20 07:54:30;;;;;;;17.02;9.30;;;;;;;;;;5021533;28;20036;-74
2022/04/20 07:56:56;;;;;;;16.25;9.32;;;;;;;;;;5017297;28;20125;-72
2022/04/20 07:59:22;;;;;;;12.73;8.63;;;;;;;;;;5008888;28;20495;-71
2022/04/20 08:01:48;;;;;;;13.35;9.75;;;;;;;;;;5015495;28;20030;-72
2022/04/20 08:04:16;;;;;;;18.25;9.05;;;;;;;;;;5022843;28;20065;-73
2022/04/20 08:06:41;;;;;;;14.40;9.32;;;;;;;;;;5022822;28;20056;-72
2022/04/20 08:09:07;;;;;;;33.03;17.35;;;;;;;;;;5015275;28;20050;-72
2022/04/20 08:11:33;;;;;;;31.65;17.63;;;;;;;;;;5009783;28;20029;-70
2022/04/20 08:14:12;;;;;;;12.75;8.02;;;;;;;;;;5016950;28;20495;-70
2022/04/20 08:16:38;;;;;;;10.65;7.70;;;;;;;;;;5019542;28;20030;-71
2022/04/20 08:19:06;;;;;;;15.77;8.68;;;;;;;;;;5024905;28;20033;-72
2022/04/20 08:21:32;;;;;;;9.32;6.65;;;;;;;;;;4996375;28;20049;-74
2022/04/20 08:23:58;;;;;;;10.80;8.20;;;;;;;;;;5025624;28;20057;-75
2022/04/20 08:26:24;;;;;;;11.35;7.65;;;;;;;;;;5002892;28;20043;-73
2022/04/20 08:28:50;;;;;;;41.97;24.17;;;;;;;;;;5017334;28;20029;-73
2022/04/20 08:31:16;;;;;;;12.88;8.77;;;;;;;;;;5027309;28;20026;-72
2022/04/20 08:33:43;;;;;;;11.98;7.25;;;;;;;;;;5017310;28;20098;-74
2022/04/20 08:36:12;;;;;;;19.17;12.00;;;;;;;;;;5027204;28;20032;-72
2022/04/20 08:38:38;;;;;;;15.73;9.25;;;;;;;;;;5025172;28;20025;-72
2022/04/20 08:41:04;;;;;;;12.00;7.13;;;;;;;;;;5019265;28;20391;-72
2022/04/20 08:43:32;;;;;;;12.70;8.00;;;;;;;;;;5031368;28;20104;-71
2022/04/20 08:46:02;;;;;;;15.23;8.48;;;;;;;;;;5002728;28;20372;-72
2022/04/20 08:48:29;;;;;;;17.05;8.77;;;;;;;;;;5023443;28;20069;-72
2022/04/20 08:50:55;;;;;;;15.20;8.48;;;;;;;;;;5027521;28;20352;-72
2022/04/20 08:53:21;;;;;;;15.48;8.65;;;;;;;;;;5017543;28;20113;-72
2022/04/20 08:55:48;;;;;;;13.85;9.40;;;;;;;;;;5029613;28;20255;-72
2022/04/20 08:58:15;;;;;;;12.75;8.93;;;;;;;;;;5021266;28;20075;-74
2022/04/20 09:00:41;;;;;;;12.80;9.15;;;;;;;;;;5022093;28;20018;-73
2022/04/20 09:03:07;;;;;;;15.85;10.57;;;;;;;;;;5012020;28;20029;-73
2022/04/20 09:05:34;;;;;;;15.00;9.60;;;;;;;;;;5028681;28;20021;-71
2022/04/20 09:08:08;;;;;;;15.65;9.55;;;;;;;;;;5027064;28;20503;-72
2022/04/20 09:10:36;;;;;;;73.95;36.05;;;;;;;;;;5024750;28;20566;-72
2022/04/20 09:13:03;;;;;;;21.55;12.63;;;;;;;;;;5019389;28;20076;-71
2022/04/20 09:15:31;;;;;;;44.47;22.45;;;;;;;;;;5031622;28;20353;-73
2022/04/20 09:17:58;;;;;;;79.93;39.35;;;;;;;;;;5009749;28;20022;-71
2022/04/20 09:20:24;;;;;;;21.58;11.48;;;;;;;;;;5023570;28;20079;-71
2022/04/20 09:23:00;;;;;;;9.82;6.78;;;;;;;;;;5030428;28;20483;-72
2022/04/20 09:25:49;;;;;;;11.50;6.75;;;;;;;;;;5017186;28;20018;-71
2022/04/20 09:28:15;;;;;;;9.60;7.00;;;;;;;;;;5001520;28;20033;-71
2022/04/20 09:30:43;;;;;;;31.27;16.55;;;;;;;;;;5025146;28;20029;-71
2022/04/20 09:33:13;;;;;;;15.48;9.38;;;;;;;;;;5033551;28;20032;-72
2022/04/20 09:35:43;;;;;;;68.82;34.88;;;;;;;;;;5030766;28;20026;-72
2022/04/20 09:38:09;;;;;;;56.03;29.80;;;;;;;;;;5019717;28;20022;-71
2022/04/20 09:40:39;;;;;;;45.88;24.52;;;;;;;;;;5014461;28;20110;-73
2022/04/20 09:43:09;;;;;;;34.78;18.75;;;;;;;;;;5032579;28;20066;-71
2022/04/20 09:45:39;;;;;;;21.55;12.00;;;;;;;;;;5029931;28;20030;-71
2022/04/20 09:51:12;;;;;;;13.57;8.70;;;;;;;;;;5022795;28;20048;-70
2022/04/20 09:53:42;;;;;;;50.85;24.23;;;;;;;;;;5016803;28;20060;-70
2022/04/20 09:56:34;;;;;;;14.52;9.20;;;;;;;;;;5008775;28;20026;-70
2022/04/20 09:59:01;;;;;;;53.22;26.95;;;;;;;;;;5022876;28;20128;-69
2022/04/20 10:01:32;;;;;;;49.70;26.63;;;;;;;;;;5013201;28;20029;-70
2022/04/20 10:03:59;;;;;;;36.45;19.35;;;;;;;;;;5016125;28;20021;-70
2022/04/20 10:06:25;;;;;;;53.88;28.23;;;;;;;;;;5022398;28;20022;-69
2022/04/20 10:08:51;;;;;;;35.88;18.90;;;;;;;;;;5008023;28;20031;-68
2022/04/20 10:11:18;;;;;;;48.10;26.75;;;;;;;;;;5013095;28;20026;-69
2022/04/20 10:13:45;;;;;;;10.52;7.28;;;;;;;;;;5017748;28;20097;-71
2022/04/20 10:16:12;;;;;;;138.98;73.82;;;;;;;;;;5020346;28;20494;-72
2022/04/20 10:18:40;;;;;;;124.63;64.88;;;;;;;;;;5002993;28;20080;-70
2022/04/20 10:21:07;;;;;;;36.75;20.23;;;;;;;;;;5025619;28;20021;-71
2022/04/20 10:23:34;;;;;;;126.15;59.63;;;;;;;;;;5028995;28;20018;-72
2022/04/20 10:26:00;;;;;;;33.17;14.48;;;;;;;;;;5018836;28;20021;-71
2022/04/20 10:28:30;;;;;;;47.10;23.95;;;;;;;;;;5021730;28;20479;-70
2022/04/20 10:30:58;;;;;;;24.58;12.95;;;;;;;;;;5026316;28;20083;-70
2022/04/20 10:33:24;;;;;;;37.58;18.85;;;;;;;;;;5016307;28;20384;-71
2022/04/20 10:35:56;;;;;;;25.50;14.70;;;;;;;;;;5027315;28;20022;-70
2022/04/20 10:38:22;;;;;;;13.98;8.60;;;;;;;;;;5020606;28;20064;-69
2022/04/20 10:40:56;;;;;;;21.67;11.57;;;;;;;;;;5001918;28;20034;-71
2022/04/20 10:43:23;;;;;;;27.40;13.82;;;;;;;;;;5028720;28;20028;-71
2022/04/20 10:46:08;;;;;;;26.15;14.70;;;;;;;;;;4999492;28;20017;-71
2022/04/20 10:48:47;;;;;;;10.48;6.82;;;;;;;;;;5020726;28;20487;-70
2022/04/20 10:51:29;;;;;;;15.63;7.95;;;;;;;;;;5010708;28;20033;-70
2022/04/20 10:53:55;;;;;;;22.00;12.93;;;;;;;;;;5003332;28;20027;-70
2022/04/20 10:56:22;;;;;;;28.48;13.93;;;;;;;;;;5022379;28;20104;-70
2022/04/20 10:59:07;;;;;;;29.10;15.73;;;;;;;;;;5023592;28;20040;-70
2022/04/20 11:01:53;;;;;;;32.35;16.58;;;;;;;;;;4997548;28;20399;-70
2022/04/20 11:04:40;;;;;;;47.63;23.38;;;;;;;;;;5023117;28;20022;-71
2022/04/20 11:07:12;;;;;;;40.13;22.67;;;;;;;;;;5026449;28;20018;-70
2022/04/20 11:09:45;;;;;;;22.13;12.05;;;;;;;;;;5015113;28;20109;-72
2022/04/20 11:21:03;;;;;;;10.77;7.75;;;;;;;;;;5018992;28;20538;-72
2022/04/20 11:23:48;;;;;;;10.90;8.10;;;;;;;;;;5008626;28;20476;-73
2022/04/20 11:26:27;;;;;;;13.00;9.02;;;;;;;;;;5019662;28;20487;-71
2022/04/20 11:28:54;;;;;;;13.88;9.95;;;;;;;;;;5017254;28;20555;-73
2022/04/20 11:31:20;;;;;;;26.30;15.60;;;;;;;;;;5027917;28;20025;-73
2022/04/20 11:33:49;;;;;;;29.05;16.40;;;;;;;;;;5015920;28;20021;-72
2022/04/20 11:36:15;;;;;;;16.30;10.73;;;;;;;;;;5005716;28;20084;-72
2022/04/20 11:38:42;;;;;;;11.57;8.18;;;;;;;;;;5004966;28;20392;-69
2022/04/20 11:41:09;;;;;;;21.42;12.80;;;;;;;;;;5015806;28;20042;-72
2022/04/20 11:43:36;;;;;;;17.35;11.18;;;;;;;;;;5027998;28;20392;-71
2022/04/20 11:46:03;;;;;;;14.55;10.32;;;;;;;;;;5000374;28;20020;-72
2022/04/20 11:48:29;;;;;;;21.30;11.98;;;;;;;;;;5021185;28;20176;-71
2022/04/20 11:50:58;;;;;;;14.95;9.63;;;;;;;;;;5025565;28;20407;-71
2022/04/20 11:53:42;;;;;;;14.13;9.27;;;;;;;;;;5015194;28;20503;-71
2022/04/20 11:56:09;;;;;;;12.05;8.23;;;;;;;;;;5024500;28;20022;-73
2022/04/20 11:58:37;;;;;;;20.67;12.93;;;;;;;;;;5004647;28;20124;-72
2022/04/20 12:01:07;;;;;;;11.32;7.63;;;;;;;;;;5017020;28;20026;-73
2022/04/20 12:03:36;;;;;;;12.25;8.30;;;;;;;;;;5028396;28;20067;-72
2022/04/20 12:06:05;;;;;;;11.02;7.70;;;;;;;;;;5018085;28;20045;-74
2022/04/20 12:08:32;;;;;;;9.55;7.45;;;;;;;;;;5024288;28;20022;-72
2022/04/20 12:11:02;;;;;;;10.13;7.30;;;;;;;;;;5030780;28;20028;-73
2022/04/20 12:13:29;;;;;;;18.08;11.57;;;;;;;;;;5019183;28;20022;-71
2022/04/20 12:16:01;;;;;;;21.08;12.75;;;;;;;;;;5029860;28;20045;-71
2022/04/20 12:18:29;;;;;;;9.25;7.47;;;;;;;;;;5024505;28;20022;-72
2022/04/20 12:20:56;;;;;;;15.23;9.02;;;;;;;;;;5021725;28;20026;-72
2022/04/20 12:23:22;;;;;;;31.52;19.10;;;;;;;;;;5031894;28;20049;-73
2022/04/20 12:25:52;;;;;;;9.98;6.82;;;;;;;;;;5020371;28;20483;-70
2022/04/20 12:28:36;;;;;;;12.00;8.00;;;;;;;;;;5026199;28;20029;-73
2022/04/20 12:31:03;;;;;;;8.40;7.38;;;;;;;;;;5030735;28;20049;-73
2022/04/20 12:33:30;;;;;;;12.77;8.18;;;;;;;;;;5019092;28;20105;-73
2022/04/20 12:36:03;;;;;;;11.10;6.68;;;;;;;;;;5029984;28;20018;-74
2022/04/20 12:38:31;;;;;;;23.27;12.27;;;;;;;;;;5024872;28;20035;-73
2022/04/20 12:40:57;;;;;;;11.43;7.85;;;;;;;;;;5055921;22;20111;-75
2022/04/20 12:43:33;;;;;;;17.23;11.38;;;;;;;;;;5017971;28;20030;-75
2022/04/20 12:46:14;;;;;;;19.70;11.48;;;;;;;;;;5028749;28;20395;-75
2022/04/20 12:48:43;;;;;;;15.73;9.95;;;;;;;;;;5025551;28;20048;-75
2022/04/20 12:51:22;;;;;;;16.67;11.40;;;;;;;;;;5000422;28;20030;-75
2022/04/20 12:53:48;;;;;;;32.20;17.33;;;;;;;;;;5023190;28;20029;-78
2022/04/20 13:02:02;;;;;;;26.33;13.95;;;;;;;;;;5002359;28;20564;-74
2022/04/20 13:04:28;;;;;;;16.70;10.27;;;;;;;;;;5024351;28;20026;-76
2022/04/20 13:06:55;;;;;;;14.85;9.50;;;;;;;;;;5027793;28;20037;-72
2022/04/20 13:09:21;;;;;;;10.60;8.27;;;;;;;;;;5016704;28;20538;-73
2022/04/20 13:11:47;;;;;;;20.77;12.95;;;;;;;;;;5011878;28;20029;-73
2022/04/20 13:14:13;;;;;;;13.98;9.75;;;;;;;;;;5022026;28;20472;-72
2022/04/20 13:16:39;;;;;;;17.27;9.55;;;;;;;;;;5004693;28;20128;-72
2022/04/20 13:19:05;;;;;;;16.10;11.60;;;;;;;;;;5027743;28;20028;-76
2022/04/20 13:21:31;;;;;;;17.02;11.13;;;;;;;;;;5017769;28;20109;-72
2022/04/20 13:23:57;;;;;;;26.17;15.45;;;;;;;;;;5028965;28;20018;-75
2022/04/20 13:29:08;;;;;;;12.75;8.93;;;;;;;;;;5021203;28;20032;-73
2022/04/20 13:31:34;;;;;;;20.45;12.73;;;;;;;;;;5030598;28;20130;-74
2022/04/20 13:34:00;;;;;;;14.73;10.23;;;;;;;;;;5020210;28;20021;-78
2022/04/20 13:36:26;;;;;;;21.05;13.95;;;;;;;;;;5024738;28;20116;-74
2022/04/20 13:38:52;;;;;;;19.08;11.38;;;;;;;;;;5026202;28;20026;-75
2022/04/20 13:41:18;;;;;;;13.30;10.10;;;;;;;;;;5016749;28;20352;-74
2022/04/20 13:43:44;;;;;;;16.15;10.95;;;;;;;;;;5030095;28;20018;-72
2022/04/20 13:46:10;;;;;;;25.50;16.10;;;;;;;;;;5022068;28;20028;-71
2022/04/20 13:48:36;;;;;;;13.60;10.15;;;;;;;;;;5021673;28;20391;-75
2022/04/20 13:51:05;;;;;;;22.52;14.32;;;;;;;;;;5027755;28;20155;-73
2022/04/20 13:53:31;;;;;;;17.75;10.70;;;;;;;;;;5016855;28;20030;-76
2022/04/20 13:55:57;;;;;;;12.93;9.27;;;;;;;;;;5027600;28;20026;-73
2022/04/20 13:58:23;;;;;;;20.13;13.15;;;;;;;;;;5021406;28;20014;-73
2022/04/20 14:00:50;;;;;;;22.88;12.32;;;;;;;;;;5020214;28;20117;-74
2022/04/20 14:03:16;;;;;;;27.80;17.33;;;;;;;;;;5012163;28;20018;-73
2022/04/20 14:05:43;;;;;;;14.05;9.15;;;;;;;;;;5017049;28;20063;-73
2022/04/20 14:08:09;;;;;;;12.95;10.38;;;;;;;;;;5025086;28;20014;-74
2022/04/20 14:10:36;;;;;;;11.63;8.73;;;;;;;;;;5023877;28;20530;-75
2022/04/20 14:13:02;;;;;;;35.92;17.17;;;;;;;;;;5017895;28;20101;-76
2022/04/20 14:15:28;;;;;;;17.52;12.23;;;;;;;;;;5029218;28;20418;-75
2022/04/20 14:17:56;;;;;;;17.65;9.23;;;;;;;;;;5017107;28;20017;-75
2022/04/20 14:20:22;;;;;;;12.02;8.63;;;;;;;;;;5023147;28;20021;-76
2022/04/20 14:22:48;;;;;;;25.00;13.77;;;;;;;;;;5025193;28;20501;-76
2022/04/20 14:33:28;;;;;;;18.73;12.48;;;;;;;;;;5028877;28;20072;-75
2022/04/20 14:35:54;;;;;;;19.40;10.68;;;;;;;;;;5017544;28;20021;-75
2022/04/20 14:38:20;;;;;;;24.15;15.73;;;;;;;;;;5022553;28;20487;-76
2022/04/20 14:40:46;;;;;;;18.65;12.27;;;;;;;;;;5024630;28;20056;-75
2022/04/20 14:43:13;;;;;;;11.48;8.43;;;;;;;;;;5016244;28;20053;-75
2022/04/20 14:45:39;;;;;;;16.48;9.57;;;;;;;;;;5011143;28;20663;-76
2022/04/20 14:48:05;;;;;;;14.82;9.15;;;;;;;;;;5018732;28;20028;-76
2022/04/20 14:50:31;;;;;;;11.50;8.27;;;;;;;;;;5021982;28;20033;-76
2022/04/20 14:52:57;;;;;;;10.32;7.05;;;;;;;;;;5026570;28;20126;-75
2022/04/20 14:55:23;;;;;;;21.58;11.80;;;;;;;;;;5015746;28;20018;-75
2022/04/20 14:57:51;;;;;;;44.75;25.05;;;;;;;;;;5008831;28;20503;-75
2022/04/20 15:00:17;;;;;;;10.52;7.22;;;;;;;;;;5020420;28;20506;-75
2022/04/20 15:02:43;;;;;;;12.85;7.90;;;;;;;;;;5020240;28;20470;-75
2022/04/20 15:05:09;;;;;;;9.27;6.72;;;;;;;;;;5009721;28;20013;-74
2022/04/20 15:07:35;;;;;;;11.25;7.15;;;;;;;;;;5014466;28;20104;-76
2022/04/20 15:10:02;;;;;;;18.23;10.77;;;;;;;;;;5007460;28;20430;-76
2022/04/20 15:12:29;;;;;;;9.50;6.55;;;;;;;;;;5021795;28;20025;-76
2022/04/20 15:14:57;;;;;;;23.95;13.32;;;;;;;;;;5018394;28;20136;-77
2022/04/20 15:17:23;;;;;;;10.70;6.97;;;;;;;;;;5009414;28;20036;-75